Time;durP1;ratioP1;P1;durP2;ratioP2;P2;SDS_P1;SDS_P2;PMS_P1;PMS_P2;Temp;Humidity;BMP_temperature;BMP_pressure;BME280_temperature;BME280_humidity;BME280_pressure;Samples;Min_cycle;Max_cycle;Signal;HPM_P1;HPM_P2
2022/07/01 00:01:33;;;;;;;22.63;21.53;;;17.90;84.80;;;;;;4969248;28;20465;-67
2022/07/01 00:04:01;;;;;;;22.37;21.17;;;17.90;84.50;;;;;;4971435;28;20465;-69
2022/07/01 00:06:28;;;;;;;22.10;20.90;;;17.80;83.50;;;;;;4967251;28;20482;-71
2022/07/01 00:08:55;;;;;;;23.93;22.73;;;17.80;83.10;;;;;;4971490;28;20557;-69
2022/07/01 00:11:22;;;;;;;23.30;22.10;;;17.70;80.30;;;;;;4970088;28;20543;-69
2022/07/01 00:13:49;;;;;;;23.60;22.50;;;17.50;81.50;;;;;;4968626;28;20822;-70
2022/07/01 00:16:16;;;;;;;22.07;20.87;;;17.40;83.40;;;;;;4964503;28;20460;-69
2022/07/01 00:18:43;;;;;;;23.40;21.80;;;17.50;84.50;;;;;;4969847;28;20478;-69
2022/07/01 00:21:12;;;;;;;22.73;21.43;;;17.50;84.80;;;;;;4970703;28;20463;-69
2022/07/01 00:23:39;;;;;;;22.60;21.23;;;17.50;84.30;;;;;;4968499;28;20513;-69
2022/07/01 00:26:06;;;;;;;23.10;21.80;;;17.50;83.90;;;;;;4969413;28;20569;-69
2022/07/01 00:28:33;;;;;;;23.80;22.60;;;17.50;82.80;;;;;;4970586;28;20837;-67
2022/07/01 00:30:59;;;;;;;23.40;22.20;;;17.50;82.30;;;;;;4967331;28;20471;-68
2022/07/01 00:33:26;;;;;;;23.07;21.97;;;17.40;82.50;;;;;;4970191;28;20469;-68
2022/07/01 00:35:54;;;;;;;23.23;21.87;;;17.40;82.70;;;;;;4968511;28;20567;-67
2022/07/01 00:38:22;;;;;;;23.00;21.90;;;17.40;83.30;;;;;;4966271;28;20515;-67
2022/07/01 00:40:53;;;;;;;23.00;21.90;;;17.40;83.70;;;;;;4968425;28;20550;-68
2022/07/01 00:43:22;;;;;;;24.20;23.00;;;17.40;84.10;;;;;;4968690;28;20455;-67
2022/07/01 00:45:50;;;;;;;22.60;21.40;;;17.40;84.60;;;;;;4966923;28;20478;-68
2022/07/01 00:48:17;;;;;;;23.50;22.37;;;17.40;83.80;;;;;;4969877;28;21003;-67
2022/07/01 00:50:44;;;;;;;23.47;22.27;;;17.40;83.50;;;;;;4967592;28;20471;-68
2022/07/01 00:53:12;;;;;;;25.00;23.40;;;17.40;82.20;;;;;;4968880;28;20473;-68
2022/07/01 00:55:41;;;;;;;23.73;22.50;;;17.30;81.00;;;;;;4968263;28;20467;-67
2022/07/01 00:58:08;;;;;;;23.23;22.13;;;17.20;81.90;;;;;;4971217;28;20569;-68
2022/07/01 01:00:38;;;;;;;22.83;21.63;;;17.20;82.00;;;;;;4967153;28;20495;-67
2022/07/01 01:03:06;;;;;;;23.20;22.00;;;17.20;82.30;;;;;;4969951;28;20462;-67
2022/07/01 01:05:33;;;;;;;23.53;22.33;;;17.20;82.70;;;;;;4968132;28;20463;-72
2022/07/01 01:08:00;;;;;;;23.50;22.30;;;17.20;83.60;;;;;;4971002;28;20482;-70
2022/07/01 01:10:27;;;;;;;24.80;23.50;;;17.20;83.70;;;;;;4968894;28;21008;-71
2022/07/01 01:12:57;;;;;;;23.33;22.03;;;17.20;83.70;;;;;;4968194;28;20481;-69
2022/07/01 01:15:24;;;;;;;23.57;22.27;;;17.10;82.20;;;;;;4968069;28;20473;-69
2022/07/01 01:17:51;;;;;;;23.73;22.53;;;17.00;81.20;;;;;;4967612;28;20582;-70
2022/07/01 01:20:20;;;;;;;23.63;22.33;;;17.00;81.90;;;;;;4965452;28;20546;-69
2022/07/01 01:22:49;;;;;;;23.73;22.47;;;17.00;81.80;;;;;;4966400;28;20462;-68
2022/07/01 01:25:17;;;;;;;23.23;22.07;;;17.00;81.60;;;;;;4969735;28;20458;-67
2022/07/01 01:27:44;;;;;;;23.03;21.83;;;16.90;82.40;;;;;;4966418;28;20495;-67
2022/07/01 01:30:13;;;;;;;23.57;22.37;;;16.90;82.30;;;;;;4969113;28;20459;-67
2022/07/01 01:32:40;;;;;;;22.47;21.37;;;16.90;82.90;;;;;;4969430;28;20467;-68
2022/07/01 01:35:08;;;;;;;23.80;22.40;;;16.90;84.20;;;;;;4966782;28;20458;-67
2022/07/01 01:37:35;;;;;;;22.80;21.70;;;16.80;83.90;;;;;;4968837;28;20482;-68
2022/07/01 01:40:05;;;;;;;23.33;22.13;;;16.80;84.50;;;;;;4968849;28;20459;-67
2022/07/01 01:42:32;;;;;;;23.80;22.50;;;16.80;84.40;;;;;;4964571;28;20865;-70
2022/07/01 01:44:59;;;;;;;23.23;22.03;;;16.80;83.00;;;;;;4969318;28;20570;-70
2022/07/01 01:47:26;;;;;;;22.43;21.33;;;16.80;83.70;;;;;;4967410;28;20487;-69
2022/07/01 01:49:53;;;;;;;22.53;21.43;;;16.80;84.40;;;;;;4970231;28;20550;-69
2022/07/01 01:52:20;;;;;;;22.30;21.17;;;16.90;85.10;;;;;;4965517;28;20585;-69
2022/07/01 01:54:47;;;;;;;23.00;21.60;;;16.90;85.00;;;;;;4961334;28;20477;-69
2022/07/01 01:57:15;;;;;;;23.30;22.00;;;16.90;84.60;;;;;;4967632;28;20530;-69
2022/07/01 01:59:42;;;;;;;22.80;21.50;;;16.90;84.90;;;;;;4969400;28;20473;-70
2022/07/01 02:02:09;;;;;;;22.53;21.43;;;17.00;84.90;;;;;;4967391;28;20466;-69
2022/07/01 02:04:36;;;;;;;23.47;22.17;;;16.90;83.30;;;;;;4968028;28;21056;-69
2022/07/01 02:07:04;;;;;;;24.13;22.83;;;16.80;83.80;;;;;;4968062;28;20514;-69
2022/07/01 02:09:31;;;;;;;22.30;21.20;;;16.70;83.10;;;;;;4968478;28;20461;-69
2022/07/01 02:11:58;;;;;;;22.17;20.97;;;16.60;83.30;;;;;;4966962;28;20553;-69
2022/07/01 02:14:27;;;;;;;22.00;20.80;;;16.60;84.00;;;;;;4968813;28;21316;-70
2022/07/01 02:16:54;;;;;;;22.00;20.90;;;16.60;84.10;;;;;;4967076;28;20455;-70
2022/07/01 02:19:21;;;;;;;22.13;20.83;;;16.70;83.30;;;;;;4967626;28;20463;-69
2022/07/01 02:21:50;;;;;;;22.10;21.00;;;16.60;84.20;;;;;;4967167;28;20495;-68
2022/07/01 02:24:18;;;;;;;22.03;20.63;;;16.60;85.20;;;;;;4968981;28;20455;-70
2022/07/01 02:26:45;;;;;;;22.27;21.07;;;16.60;84.60;;;;;;4968420;28;20478;-70
2022/07/01 02:29:12;;;;;;;21.60;20.37;;;16.50;85.20;;;;;;4967828;28;20475;-69
2022/07/01 02:31:41;;;;;;;21.17;20.07;;;16.50;85.80;;;;;;4967620;28;20466;-69
2022/07/01 02:34:08;;;;;;;20.93;19.80;;;16.50;86.00;;;;;;4967281;28;20467;-69
2022/07/01 02:36:34;;;;;;;21.30;20.20;;;16.50;86.50;;;;;;4971343;28;20466;-69
2022/07/01 02:39:01;;;;;;;21.50;20.40;;;16.50;84.80;;;;;;4970896;28;20573;-69
2022/07/01 02:41:28;;;;;;;21.80;20.50;;;16.40;85.40;;;;;;4968406;28;20463;-69
2022/07/01 02:43:55;;;;;;;21.67;20.40;;;16.30;86.40;;;;;;4969890;28;20550;-67
2022/07/01 02:46:23;;;;;;;22.10;20.73;;;16.40;85.50;;;;;;4968664;28;20475;-67
2022/07/01 02:48:51;;;;;;;21.53;20.43;;;16.30;85.60;;;;;;4971420;28;21284;-67
2022/07/01 02:51:18;;;;;;;20.87;19.77;;;16.30;86.80;;;;;;4968680;28;20887;-67
2022/07/01 02:53:45;;;;;;;24.00;22.80;;;16.30;86.50;;;;;;4971093;28;21028;-67
2022/07/01 02:56:12;;;;;;;22.50;21.30;;;16.30;86.20;;;;;;4969880;28;20570;-67
2022/07/01 02:58:39;;;;;;;22.47;21.17;;;16.30;86.20;;;;;;4967103;28;22137;-67
2022/07/01 03:01:06;;;;;;;23.37;21.70;;;16.30;84.90;;;;;;4965969;28;20537;-67
2022/07/01 03:03:33;;;;;;;23.90;22.60;;;16.30;85.80;;;;;;4969555;28;20561;-67
2022/07/01 03:06:01;;;;;;;22.67;21.47;;;16.30;86.10;;;;;;4970837;28;20550;-67
2022/07/01 03:08:28;;;;;;;21.63;20.50;;;16.30;86.90;;;;;;4969891;28;20486;-67
2022/07/01 03:10:55;;;;;;;23.07;21.80;;;16.40;86.40;;;;;;4967133;28;20565;-67
2022/07/01 03:13:22;;;;;;;22.90;21.70;;;16.40;85.20;;;;;;4970419;28;20538;-66
2022/07/01 03:15:49;;;;;;;21.90;20.70;;;16.40;85.40;;;;;;4970793;28;20542;-69
2022/07/01 03:18:16;;;;;;;23.80;22.40;;;16.40;86.10;;;;;;4970633;28;20477;-69
2022/07/01 03:20:43;;;;;;;24.37;23.00;;;16.40;86.00;;;;;;4967218;28;20473;-69
2022/07/01 03:23:11;;;;;;;23.60;22.20;;;16.40;85.00;;;;;;4968458;28;20538;-69
2022/07/01 03:25:38;;;;;;;21.70;20.50;;;16.40;85.50;;;;;;4969238;28;21254;-69
2022/07/01 03:28:05;;;;;;;21.80;20.70;;;16.40;85.60;;;;;;4970921;28;20485;-72
2022/07/01 03:30:33;;;;;;;22.13;21.03;;;16.40;85.20;;;;;;4968505;28;20477;-71
2022/07/01 03:32:59;;;;;;;24.53;23.13;;;16.30;85.40;;;;;;4965174;28;20459;-69
2022/07/01 03:35:40;;;;;;;23.33;22.13;;;16.40;85.80;;;;;;4969563;28;20461;-67
2022/07/01 03:38:08;;;;;;;24.47;23.17;;;16.40;85.80;;;;;;4929172;28;1110292;-67
2022/07/01 03:40:36;;;;;;;24.17;22.67;;;16.40;86.00;;;;;;4970086;28;20482;-67
2022/07/01 03:43:04;;;;;;;24.07;22.77;;;16.40;85.30;;;;;;4970827;28;20463;-67
2022/07/01 03:45:31;;;;;;;25.73;24.43;;;16.40;86.10;;;;;;4970406;28;20471;-67
2022/07/01 03:47:58;;;;;;;22.50;21.37;;;16.50;85.70;;;;;;4968976;28;21183;-67
2022/07/01 03:50:26;;;;;;;21.60;20.50;;;16.50;85.90;;;;;;4970054;28;20463;-66
2022/07/01 03:54:29;;;;;;;22.50;21.20;;;16.50;85.70;;;;;;4970346;28;21080;-67
2022/07/01 03:55:42;;;;;;;22.77;21.57;;;16.50;85.40;;;;;;4970229;28;20572;-67
2022/07/01 03:58:09;;;;;;;25.20;23.90;;;16.40;85.70;;;;;;4969766;28;20471;-67
2022/07/01 04:00:37;;;;;;;24.93;23.63;;;16.50;85.70;;;;;;4967070;28;21028;-68
2022/07/01 04:03:05;;;;;;;23.07;21.67;;;16.40;86.00;;;;;;4970081;28;20495;-67
2022/07/01 04:05:34;;;;;;;23.93;22.77;;;16.40;87.10;;;;;;4970422;28;20556;-67
2022/07/01 04:08:01;;;;;;;23.73;22.43;;;16.40;86.80;;;;;;4969393;28;20841;-67
2022/07/01 04:10:28;;;;;;;23.00;21.80;;;16.50;86.70;;;;;;4970589;28;20469;-67
2022/07/01 04:12:56;;;;;;;25.20;23.90;;;16.50;86.40;;;;;;4969116;28;20466;-68
2022/07/01 04:15:23;;;;;;;21.97;20.80;;;16.40;86.50;;;;;;4970899;28;20463;-67
2022/07/01 04:17:50;;;;;;;24.30;23.00;;;16.30;86.90;;;;;;4970274;28;20558;-67
2022/07/01 04:20:17;;;;;;;22.87;21.40;;;16.20;87.70;;;;;;4968972;28;20558;-67
2022/07/01 04:22:43;;;;;;;23.87;22.67;;;16.20;87.80;;;;;;4969984;28;20538;-67
2022/07/01 04:25:10;;;;;;;22.27;21.07;;;16.20;88.00;;;;;;4970950;28;20485;-67
2022/07/01 04:27:37;;;;;;;25.13;23.60;;;16.20;88.10;;;;;;4970061;28;20925;-67
2022/07/01 04:30:07;;;;;;;24.17;22.87;;;16.20;87.90;;;;;;4970043;28;20550;-68
2022/07/01 04:32:35;;;;;;;21.93;20.83;;;16.20;86.80;;;;;;4968155;28;20463;-67
2022/07/01 04:35:01;;;;;;;25.70;24.20;;;16.20;87.10;;;;;;4969520;28;20490;-67
2022/07/01 04:37:28;;;;;;;26.50;25.10;;;16.20;87.50;;;;;;4969886;28;20590;-67
2022/07/01 04:39:55;;;;;;;23.40;22.20;;;16.10;86.70;;;;;;4970057;28;20469;-67
2022/07/01 04:42:22;;;;;;;23.00;21.70;;;16.00;87.00;;;;;;4967209;28;20591;-67
2022/07/01 04:44:49;;;;;;;26.70;25.30;;;16.10;87.30;;;;;;4970040;28;20503;-67
2022/07/01 04:47:17;;;;;;;25.77;24.37;;;16.10;86.10;;;;;;4969752;28;20557;-67
2022/07/01 04:49:44;;;;;;;22.37;21.27;;;16.00;86.50;;;;;;4968730;28;20485;-67
2022/07/01 04:52:11;;;;;;;23.77;22.47;;;16.00;86.90;;;;;;4968111;28;20459;-67
2022/07/01 04:54:38;;;;;;;23.20;22.00;;;16.00;86.20;;;;;;4969888;28;20557;-67
2022/07/01 04:57:05;;;;;;;24.53;23.23;;;15.80;85.50;;;;;;4969187;28;20475;-67
2022/07/01 04:59:32;;;;;;;24.87;23.57;;;15.80;85.90;;;;;;4968698;28;20463;-67
2022/07/01 05:01:59;;;;;;;22.00;20.90;;;15.70;86.80;;;;;;4967978;28;20467;-67
2022/07/01 05:04:28;;;;;;;24.57;23.27;;;15.80;87.20;;;;;;4969630;28;20459;-67
2022/07/01 05:06:55;;;;;;;22.70;21.40;;;15.80;87.60;;;;;;4969149;28;20466;-67
2022/07/01 05:09:22;;;;;;;22.40;21.20;;;15.80;87.60;;;;;;4970086;28;20463;-67
2022/07/01 05:11:49;;;;;;;22.17;20.97;;;15.90;88.10;;;;;;4966260;28;20569;-67
2022/07/01 05:14:16;;;;;;;22.40;21.20;;;15.90;87.70;;;;;;4968050;28;20574;-67
2022/07/01 05:16:43;;;;;;;22.97;21.70;;;15.90;88.00;;;;;;4962356;28;20455;-67
2022/07/01 05:21:59;;;;;;;21.97;20.77;;;15.90;88.60;;;;;;4968832;28;20545;-68
2022/07/01 05:24:29;;;;;;;22.07;20.97;;;16.00;88.20;;;;;;4970107;28;20467;-68
2022/07/01 05:26:56;;;;;;;22.83;21.63;;;16.00;87.60;;;;;;4967756;28;20463;-68
2022/07/01 05:29:23;;;;;;;24.43;23.43;;;15.90;87.80;;;;;;4967369;28;20465;-67
2022/07/01 05:31:50;;;;;;;21.83;20.73;;;15.90;88.20;;;;;;4968170;28;20549;-68
2022/07/01 05:34:17;;;;;;;24.10;22.90;;;16.10;87.70;;;;;;4968273;28;20537;-67
2022/07/01 05:36:44;;;;;;;22.00;20.90;;;16.00;87.70;;;;;;4966505;28;20471;-66
2022/07/01 05:39:12;;;;;;;21.42;20.30;;;16.00;87.40;;;;;;4967020;28;20558;-66
2022/07/01 05:41:40;;;;;;;22.60;21.50;;;16.10;87.80;;;;;;4967790;28;20323;-67
2022/07/01 05:44:07;;;;;;;23.23;21.83;;;16.10;87.00;;;;;;4970099;28;20560;-67
2022/07/01 05:46:34;;;;;;;25.53;24.13;;;16.10;86.80;;;;;;4970213;28;20490;-70
2022/07/01 05:49:01;;;;;;;23.07;21.77;;;16.10;86.80;;;;;;4968788;28;20482;-67
2022/07/01 05:51:28;;;;;;;22.10;21.00;;;16.00;87.20;;;;;;4962789;28;20558;-68
2022/07/01 05:53:56;;;;;;;22.40;21.10;;;16.00;88.10;;;;;;4967995;28;20483;-68
2022/07/01 05:56:25;;;;;;;21.80;20.70;;;16.10;88.50;;;;;;4967240;28;20466;-68
2022/07/01 05:58:52;;;;;;;22.60;21.40;;;16.10;87.50;;;;;;4964631;28;20567;-67
2022/07/01 06:01:19;;;;;;;24.13;22.53;;;15.90;86.80;;;;;;4966831;28;20467;-70
2022/07/01 06:03:46;;;;;;;26.23;24.83;;;15.80;88.10;;;;;;4966102;28;20955;-70
2022/07/01 06:06:13;;;;;;;24.93;23.70;;;15.70;87.90;;;;;;4967742;28;20546;-69
2022/07/01 06:08:40;;;;;;;22.83;21.73;;;15.50;87.80;;;;;;4966591;28;20515;-69
2022/07/01 06:11:06;;;;;;;22.77;21.57;;;15.50;88.60;;;;;;4966466;28;20542;-69
2022/07/01 06:13:35;;;;;;;25.50;24.03;;;15.40;89.50;;;;;;4968268;28;20553;-70
2022/07/01 06:16:02;;;;;;;23.37;21.97;;;15.50;89.70;;;;;;4966448;28;20546;-70
2022/07/01 06:18:29;;;;;;;25.47;24.07;;;15.50;89.60;;;;;;4968106;28;20579;-70
2022/07/01 06:20:56;;;;;;;22.90;21.60;;;15.50;90.20;;;;;;4966245;28;20459;-70
2022/07/01 06:23:23;;;;;;;22.37;21.07;;;15.50;90.20;;;;;;4968705;28;20463;-69
2022/07/01 06:25:50;;;;;;;23.50;21.90;;;15.50;89.40;;;;;;4967739;28;20476;-70
2022/07/01 06:28:17;;;;;;;22.13;20.83;;;15.50;89.20;;;;;;4966736;28;20513;-71
2022/07/01 06:30:45;;;;;;;25.20;23.80;;;15.40;89.90;;;;;;4966338;28;20636;-70
2022/07/01 06:33:13;;;;;;;26.50;25.10;;;15.50;90.60;;;;;;4965646;28;20470;-69
2022/07/01 06:35:40;;;;;;;22.00;20.90;;;15.60;90.20;;;;;;4965692;28;21056;-70
2022/07/01 06:38:08;;;;;;;22.73;21.43;;;15.70;90.20;;;;;;4966003;28;20574;-70
2022/07/01 06:40:35;;;;;;;26.07;24.40;;;15.90;89.40;;;;;;4965503;28;20471;-70
2022/07/01 06:43:02;;;;;;;25.20;23.80;;;15.90;88.90;;;;;;4968644;28;20569;-69
2022/07/01 06:45:29;;;;;;;25.30;24.00;;;16.10;88.00;;;;;;4966031;28;20474;-69
2022/07/01 06:47:57;;;;;;;23.20;21.90;;;16.20;87.60;;;;;;4963642;28;20486;-71
2022/07/01 06:50:24;;;;;;;23.10;21.90;;;16.10;88.20;;;;;;4966301;28;20555;-71
2022/07/01 06:52:51;;;;;;;22.93;21.63;;;16.10;88.70;;;;;;4965136;28;20874;-70
2022/07/01 06:55:18;;;;;;;24.00;22.60;;;16.00;88.50;;;;;;4963461;28;20554;-70
2022/07/01 06:57:45;;;;;;;22.57;21.27;;;16.00;88.40;;;;;;4964882;28;21973;-76
2022/07/01 07:00:13;;;;;;;22.30;21.10;;;16.10;89.30;;;;;;4967490;28;20530;-73
2022/07/01 07:02:40;;;;;;;23.77;22.67;;;16.20;89.70;;;;;;4964872;28;21274;-66
2022/07/01 07:05:10;;;;;;;25.27;24.07;;;16.30;89.10;;;;;;4967993;28;20462;-68
2022/07/01 07:07:37;;;;;;;23.17;21.93;;;16.40;89.00;;;;;;4964696;28;21019;-66
2022/07/01 07:10:06;;;;;;;22.47;21.27;;;16.50;88.40;;;;;;4967507;28;20957;-66
2022/07/01 07:12:33;;;;;;;22.70;21.50;;;16.70;88.00;;;;;;4964350;28;20481;-67
2022/07/01 07:15:00;;;;;;;23.80;22.40;;;16.80;86.60;;;;;;4968325;28;20462;-67
2022/07/01 07:17:27;;;;;;;23.57;22.20;;;16.80;86.50;;;;;;4963426;28;20561;-67
2022/07/01 07:19:55;;;;;;;22.37;21.17;;;16.90;86.70;;;;;;4965135;28;20454;-67
2022/07/01 07:22:23;;;;;;;25.10;23.80;;;16.90;86.60;;;;;;4966967;28;20558;-69
2022/07/01 07:24:50;;;;;;;22.43;21.20;;;17.00;85.80;;;;;;4972029;28;20494;-72
2022/07/01 07:27:17;;;;;;;22.30;21.20;;;17.00;85.70;;;;;;4968432;28;20570;-68
2022/07/01 07:29:44;;;;;;;24.13;22.87;;;17.00;85.60;;;;;;4971506;28;20992;-68
2022/07/01 07:32:11;;;;;;;22.93;21.73;;;17.10;84.20;;;;;;4970044;28;20813;-69
2022/07/01 07:34:38;;;;;;;22.70;21.40;;;17.00;85.10;;;;;;4971831;28;20482;-69
2022/07/01 07:37:05;;;;;;;22.30;21.10;;;17.00;84.90;;;;;;4966010;28;20515;-70
2022/07/01 07:39:33;;;;;;;26.33;24.53;;;17.10;85.20;;;;;;4967991;28;20471;-69
2022/07/01 07:42:01;;;;;;;22.30;21.10;;;17.10;85.20;;;;;;4969013;28;20546;-71
2022/07/01 07:44:28;;;;;;;22.97;21.77;;;17.00;86.30;;;;;;4970388;28;20471;-69
2022/07/01 07:46:56;;;;;;;24.17;22.97;;;17.10;86.10;;;;;;4967682;28;20469;-69
2022/07/01 07:49:24;;;;;;;23.00;21.80;;;17.00;85.60;;;;;;4970191;28;20578;-69
2022/07/01 07:51:51;;;;;;;22.47;21.07;;;17.10;85.00;;;;;;4969344;28;20558;-69
2022/07/01 07:54:17;;;;;;;22.77;21.57;;;17.00;84.50;;;;;;4968764;28;20478;-69
2022/07/01 07:56:46;;;;;;;25.27;23.93;;;16.90;85.20;;;;;;4966952;28;20521;-70
2022/07/01 07:59:13;;;;;;;24.30;23.00;;;17.00;85.10;;;;;;4969033;28;20953;-69
2022/07/01 08:01:40;;;;;;;22.97;21.80;;;17.00;85.00;;;;;;4968083;28;20466;-69
2022/07/01 08:04:07;;;;;;;26.37;24.90;;;16.90;83.90;;;;;;4966778;28;21079;-69
2022/07/01 08:06:34;;;;;;;24.97;23.70;;;16.90;84.20;;;;;;4968884;28;20469;-69
2022/07/01 08:09:01;;;;;;;25.23;24.03;;;16.90;84.10;;;;;;4965852;28;21000;-69
2022/07/01 08:11:28;;;;;;;23.53;22.30;;;16.90;84.20;;;;;;4968422;28;20458;-69
2022/07/01 08:13:57;;;;;;;24.00;22.67;;;17.00;84.50;;;;;;4965411;28;20626;-69
2022/07/01 08:16:23;;;;;;;25.27;23.90;;;17.00;84.70;;;;;;4962130;28;20459;-71
2022/07/01 08:18:51;;;;;;;26.20;24.80;;;17.10;84.60;;;;;;4965318;28;20475;-70
2022/07/01 08:21:18;;;;;;;24.60;23.30;;;17.20;84.40;;;;;;4968582;28;20491;-67
2022/07/01 08:23:45;;;;;;;24.00;22.70;;;17.20;84.80;;;;;;4967595;28;20474;-67
2022/07/01 08:26:13;;;;;;;23.53;22.33;;;17.30;84.50;;;;;;4960018;28;20656;-67
2022/07/01 08:28:40;;;;;;;23.77;22.17;;;17.40;84.20;;;;;;4970373;28;20501;-67
2022/07/01 08:31:09;;;;;;;25.10;23.80;;;17.50;85.10;;;;;;4968221;28;20550;-67
2022/07/01 08:33:37;;;;;;;25.30;23.90;;;17.60;85.00;;;;;;4965535;28;20565;-67
2022/07/01 08:36:04;;;;;;;24.93;23.53;;;17.70;84.60;;;;;;4967858;28;20517;-67
2022/07/01 08:38:32;;;;;;;24.50;23.30;;;17.90;84.50;;;;;;4968908;28;20573;-67
2022/07/01 08:41:00;;;;;;;22.97;21.77;;;18.00;84.30;;;;;;4967106;28;20912;-67
2022/07/01 08:43:28;;;;;;;24.63;23.43;;;18.10;82.80;;;;;;4966569;28;20542;-67
2022/07/01 08:45:55;;;;;;;25.20;23.90;;;18.20;81.90;;;;;;4967896;28;20566;-67
2022/07/01 08:48:23;;;;;;;24.30;22.90;;;18.30;82.10;;;;;;4966498;28;20494;-67
2022/07/01 08:50:50;;;;;;;24.80;23.30;;;18.30;81.40;;;;;;4966856;28;21008;-67
2022/07/01 08:53:17;;;;;;;25.40;24.10;;;18.20;81.70;;;;;;4966944;28;20553;-67
2022/07/01 08:58:29;;;;;;;24.97;23.67;;;18.30;80.90;;;;;;4962910;28;20473;-74
2022/07/01 09:01:15;;;;;;;26.40;25.00;;;18.20;81.40;;;;;;4965644;28;20573;-71
2022/07/01 09:03:45;;;;;;;23.43;22.23;;;18.20;82.00;;;;;;4966353;28;21020;-67
2022/07/01 09:06:14;;;;;;;25.00;23.67;;;18.20;82.10;;;;;;4967652;28;20464;-67
2022/07/01 09:08:41;;;;;;;24.03;22.63;;;18.20;82.00;;;;;;4968463;28;20495;-68
2022/07/01 09:11:16;;;;;;;28.20;26.73;;;18.10;81.30;;;;;;4967203;28;20459;-67
2022/07/01 09:13:44;;;;;;;24.53;23.23;;;18.10;81.20;;;;;;4968542;28;20988;-67
2022/07/01 09:16:16;;;;;;;25.20;23.90;;;18.10;79.20;;;;;;4965019;28;20459;-68
2022/07/01 09:19:01;;;;;;;24.30;23.10;;;18.00;80.30;;;;;;4969004;28;20479;-68
2022/07/01 09:21:29;;;;;;;25.47;24.07;;;17.80;81.90;;;;;;4966129;28;20467;-68
2022/07/01 09:23:56;;;;;;;23.90;22.50;;;17.70;82.60;;;;;;4966635;28;20467;-66
2022/07/01 09:26:23;;;;;;;24.40;23.10;;;17.70;83.00;;;;;;4966846;28;20473;-67
2022/07/01 09:28:54;;;;;;;23.67;22.47;;;17.70;83.20;;;;;;4967574;28;20558;-68
2022/07/01 09:31:21;;;;;;;26.30;24.90;;;17.70;83.40;;;;;;4964028;28;20590;-67
2022/07/01 09:34:03;;;;;;;24.10;22.80;;;17.60;84.50;;;;;;4968587;28;20910;-69
2022/07/01 09:36:30;;;;;;;23.40;22.17;;;17.60;83.80;;;;;;4965774;28;20835;-69
2022/07/01 09:38:57;;;;;;;23.03;21.83;;;17.50;84.20;;;;;;4964719;28;20483;-69
2022/07/01 09:41:25;;;;;;;22.53;21.33;;;17.50;84.30;;;;;;4967683;28;20869;-69
2022/07/01 09:43:52;;;;;;;22.63;21.53;;;17.50;84.30;;;;;;4965997;28;20459;-70
2022/07/01 09:46:18;;;;;;;23.93;22.73;;;17.40;85.20;;;;;;4964989;28;20476;-69
2022/07/01 09:48:47;;;;;;;23.53;22.23;;;17.40;85.10;;;;;;4967079;28;20598;-69
2022/07/01 09:51:16;;;;;;;24.27;23.07;;;17.50;85.10;;;;;;4966956;28;20865;-69
2022/07/01 09:53:43;;;;;;;24.90;23.50;;;17.50;84.70;;;;;;4964768;28;20470;-69
2022/07/01 09:56:10;;;;;;;25.23;23.80;;;17.50;83.40;;;;;;4964047;28;20463;-69
2022/07/01 09:58:38;;;;;;;24.87;23.47;;;17.30;82.40;;;;;;4962070;28;20477;-71
2022/07/01 10:01:06;;;;;;;26.83;25.37;;;17.10;83.10;;;;;;4963578;28;20943;-70
2022/07/01 10:03:34;;;;;;;25.37;23.87;;;17.20;83.20;;;;;;4968596;28;20467;-70
2022/07/01 10:06:19;;;;;;;24.03;22.73;;;17.20;83.80;;;;;;4965255;28;20542;-67
2022/07/01 10:08:58;;;;;;;24.97;23.57;;;17.20;83.40;;;;;;4955544;28;20571;-68
2022/07/01 10:12:08;;;;;;;25.00;23.60;;;17.60;83.10;;;;;;4959993;28;20557;-68
2022/07/01 10:14:38;;;;;;;24.60;23.30;;;17.80;82.00;;;;;;4895814;29;20469;-68
2022/07/01 10:17:07;;;;;;;26.17;24.77;;;17.90;81.60;;;;;;4906596;29;20481;-68
2022/07/01 10:19:34;;;;;;;24.73;23.43;;;18.00;81.40;;;;;;4938275;28;20562;-67
2022/07/01 10:22:26;;;;;;;28.30;26.83;;;18.10;81.50;;;;;;4962770;28;20459;-68
2022/07/01 10:24:53;;;;;;;28.77;27.27;;;18.30;79.90;;;;;;4955199;28;20559;-68
2022/07/01 10:27:22;;;;;;;26.53;25.13;;;18.50;79.80;;;;;;4960196;28;21023;-68
2022/07/01 10:29:49;;;;;;;28.60;27.00;;;18.40;79.50;;;;;;4965773;28;20476;-68
2022/07/01 10:32:28;;;;;;;24.70;23.40;;;18.60;79.70;;;;;;4963395;28;20473;-68
2022/07/01 10:35:05;;;;;;;27.80;26.40;;;18.60;79.10;;;;;;4961974;28;20454;-68
2022/07/01 10:37:34;;;;;;;25.97;24.47;;;18.60;78.60;;;;;;4965269;28;20586;-68
2022/07/01 10:40:02;;;;;;;25.67;24.17;;;18.90;77.20;;;;;;4964755;28;20480;-69
2022/07/01 10:42:31;;;;;;;25.60;24.10;;;19.00;76.30;;;;;;4965191;28;20458;-70
2022/07/01 10:45:03;;;;;;;25.50;24.10;;;19.00;75.70;;;;;;4958246;28;20480;-69
2022/07/01 10:47:30;;;;;;;26.97;25.37;;;19.30;74.80;;;;;;4961735;28;20578;-69
2022/07/01 10:50:05;;;;;;;26.20;24.70;;;19.50;74.40;;;;;;4954764;28;21035;-70
2022/07/01 10:52:34;;;;;;;24.90;23.53;;;19.60;74.00;;;;;;4962840;28;20459;-70
2022/07/01 10:55:02;;;;;;;25.67;24.27;;;19.90;73.70;;;;;;4965937;28;20459;-70
2022/07/01 10:57:40;;;;;;;24.60;23.30;;;20.00;74.30;;;;;;4966786;28;20494;-70
2022/07/01 11:00:32;;;;;;;24.70;23.40;;;20.00;74.10;;;;;;4967255;28;20460;-70
2022/07/01 11:03:11;;;;;;;29.50;28.00;;;20.00;74.10;;;;;;4973906;28;20471;-68
2022/07/01 11:05:38;;;;;;;27.27;26.07;;;20.10;72.90;;;;;;4965863;28;20580;-69
2022/07/01 11:08:09;;;;;;;25.27;23.97;;;20.30;72.60;;;;;;4967623;28;20487;-68
2022/07/01 11:10:36;;;;;;;25.53;24.13;;;20.40;70.60;;;;;;4968240;28;20792;-68
2022/07/01 11:13:03;;;;;;;25.60;24.00;;;20.50;69.90;;;;;;4966130;28;20554;-72
2022/07/01 11:15:31;;;;;;;27.50;25.97;;;20.50;71.30;;;;;;4968854;28;20463;-70
2022/07/01 11:17:59;;;;;;;29.80;28.10;;;20.50;70.10;;;;;;4968085;28;20488;-70
2022/07/01 11:20:26;;;;;;;27.20;25.70;;;20.70;69.70;;;;;;4965897;28;20509;-73
2022/07/01 11:22:54;;;;;;;25.73;24.33;;;20.80;69.00;;;;;;4967920;28;20498;-70
2022/07/01 11:25:23;;;;;;;25.83;24.10;;;20.70;68.00;;;;;;4965928;28;20493;-73
2022/07/01 11:27:51;;;;;;;26.20;24.60;;;20.40;69.00;;;;;;4965523;28;20579;-70
2022/07/01 11:30:19;;;;;;;25.73;24.33;;;20.30;69.70;;;;;;4962816;28;20480;-71
2022/07/01 11:32:48;;;;;;;25.80;24.30;;;20.40;69.40;;;;;;4967560;28;20580;-71
2022/07/01 11:41:00;;;;;;;27.13;25.47;;;20.20;68.70;;;;;;4960852;28;21099;-73
2022/07/01 11:43:29;;;;;;;25.57;24.17;;;20.00;69.30;;;;;;4970260;28;20477;-72
2022/07/01 11:45:58;;;;;;;27.60;26.00;;;20.40;69.30;;;;;;4969408;28;20480;-72
2022/07/01 11:48:37;;;;;;;24.67;23.13;;;20.80;68.40;;;;;;4963914;28;20498;-71
2022/07/01 11:51:08;;;;;;;24.33;23.03;;;21.00;66.90;;;;;;4963285;28;20486;-71
2022/07/01 11:53:35;;;;;;;25.83;24.23;;;20.90;66.00;;;;;;4966902;28;20464;-71
2022/07/01 11:56:04;;;;;;;26.30;24.40;;;21.10;67.10;;;;;;4969741;28;20456;-71
2022/07/01 11:58:44;;;;;;;25.40;23.90;;;21.50;67.40;;;;;;4964943;28;20570;-70
2022/07/01 12:01:11;;;;;;;24.40;23.10;;;21.80;68.40;;;;;;4958532;28;20467;-73
2022/07/01 12:03:38;;;;;;;26.00;24.60;;;22.10;68.00;;;;;;4967915;28;20464;-71
2022/07/01 12:06:06;;;;;;;26.07;24.77;;;22.20;67.40;;;;;;4967189;28;21266;-71
2022/07/01 12:08:33;;;;;;;25.57;24.00;;;22.50;65.60;;;;;;4966366;28;20490;-71
2022/07/01 12:11:00;;;;;;;25.17;23.83;;;22.60;63.50;;;;;;4959739;28;20491;-69
2022/07/01 12:13:29;;;;;;;26.07;24.57;;;22.70;63.20;;;;;;4968220;28;20546;-72
2022/07/01 12:16:07;;;;;;;25.47;24.07;;;23.10;61.40;;;;;;4965800;28;20555;-72
2022/07/01 12:18:34;;;;;;;25.90;24.30;;;23.40;60.40;;;;;;4969439;28;20482;-72
2022/07/01 12:21:01;;;;;;;27.13;25.53;;;23.70;60.80;;;;;;4966330;28;20904;-72
2022/07/01 12:23:28;;;;;;;27.97;26.47;;;23.90;59.50;;;;;;4969288;28;20546;-72
2022/07/01 12:25:55;;;;;;;27.23;25.70;;;24.00;60.00;;;;;;4965043;28;20459;-72
2022/07/01 12:28:32;;;;;;;27.37;25.87;;;24.10;60.70;;;;;;4968611;28;20482;-73
2022/07/01 12:31:03;;;;;;;28.20;26.60;;;24.50;60.40;;;;;;4966145;28;20482;-74
2022/07/01 12:33:31;;;;;;;29.70;28.17;;;24.60;58.40;;;;;;4965919;28;20817;-75
2022/07/01 12:35:58;;;;;;;27.17;25.57;;;24.40;59.10;;;;;;4962970;28;20469;-74
2022/07/01 12:38:25;;;;;;;26.90;25.50;;;24.30;60.60;;;;;;4964102;28;20530;-82
2022/07/01 12:40:52;;;;;;;27.77;26.27;;;24.20;60.10;;;;;;4965191;28;20534;-73
2022/07/01 12:43:31;;;;;;;28.10;26.50;;;23.90;60.40;;;;;;4960624;28;20497;-74